Terminal Aerodrome Forecast
Issued by NWS

Home | Current Version | Previous Version | Text Only | Print | Product List | Glossary On
Versions: 1 2 3 4 5 6 7 8 9 10 11 12 13 14 15 16 17 18 19 20 21 22 23 24 25
775
FTUS46 KSEW 270536
TAFSEA
TAF
KSEA 270536Z 2706/2812 VRB03KT P6SM SCT250
     FM270900 19006KT P6SM SCT250
     FM271400 20010KT P6SM OVC012
     FM271800 20012KT P6SM BKN022
     FM272000 20012KT P6SM SCT030 BKN100
     FM280400 22008KT P6SM BKN030 BKN100=

USA.gov is the U.S. government's official web portal to all federal, state and local government web resources and services.